Terminal Aerodrome Forecast
Issued by NWS

Home | Current Version | Previous Version | Text Only | Print | Product List | Glossary On
Versions: 1 2 3 4 5 6 7 8 9 10 11 12 13 14 15
000
FTUS46 KSGX 121700
TAFONT
TAF
KONT 121739Z 1218/1324 VRB04KT P6SM FEW250
     FM122100 27011KT P6SM SCT200
     FM130500 VRB04KT P6SM FEW200
     FM132100 27011KT P6SM SCT200=

USA.gov is the U.S. government's official web portal to all federal, state and local government web resources and services.